Roseburg, OR (97471)

1:17 AM PDT on July 31, 2016 (GMT -0700)
Hucrest | | Change Station

Elev 425 ft 43.22 °N, 123.38 °W | Updated 7 minutes ago

Clear
Clear
64.7 °F
Feels Like 64.7 °F
N
0.0
Wind Variable Wind from NW
Gusts 0.0 mph

Today
High -- | Low -- °F
--% Chance of Precip.
Yesterday
High -- | Low -- °F
Precip. -- in
Pressure 29.97 in
Visibility 10.0 miles
Clouds Clear
Dew Point 50 °F
Humidity 60%
Rainfall 0.00 in
Snow Depth Not available.
6:03 AM 8:35 PM
Waning Crescent, 8% visible
METAR KRBG 310753Z AUTO 00000KT 10SM CLR 19/09 A2998 RMK AO2 SLP148 T01940094 403330167
Pressure 29.97 in
Visibility 10.0 miles
Clouds Clear
Dew Point 50 °F
Humidity 60%
Rainfall 0.00 in
Snow Depth Not available.
6:03 AM 8:35 PM
Waning Crescent, 8% visible
METAR KRBG 310753Z AUTO 00000KT 10SM CLR 19/09 A2998 RMK AO2 SLP148 T01940094 403330167

10-Day Weather Forecast

Almanac

Astronomy

Jul. 31, 2016 Rise Set
Actual Time
Civil Twilight
Nautical Twilight
Astronomical Twilight
Moon
Length of Visible Light
Length of Day
Tomorrow will be .
, % of the Moon is Illuminated

Today's Extremes

State Highs State Lows

Community

WunderPhotos

Upload Photos

1,928,768 photos uploaded!

WunderBlog® & News

Nearby

Air Quality

  Air Quality AQ Index Pollutant
Not available.

Snow Depth

Station Depth Elevation

Earthquake Activity

City Distance Mag. Time & Date
Minimum magnitude displayed is 2.5.

Coastal Water Temperatures

Place Temperature

Stations

Nearby Weather Stations

Station Location Temp. Windchill Dew Point Humidity Wind Precip. Elev Updated Type
                   

Watches & Warnings

There are currently no watches in effect.